Time;durP1;ratioP1;P1;durP2;ratioP2;P2;SDS_P1;SDS_P2;PMS_P1;PMS_P2;Temp;Humidity;BMP_temperature;BMP_pressure;BME280_temperature;BME280_humidity;BME280_pressure;Samples;Min_cycle;Max_cycle;Signal;HPM_P1;HPM_P2
2023/12/15 00:00:34;;;;;;;29.77;14.35;;;7.10;99.90;;;;;;5092725;28;20487;-71
2023/12/15 00:03:00;;;;;;;26.00;13.10;;;7.00;99.90;;;;;;5092725;28;20035;-71
2023/12/15 00:05:26;;;;;;;23.92;13.48;;;7.00;99.90;;;;;;5092731;28;20040;-71
2023/12/15 00:07:51;;;;;;;29.60;14.57;;;6.90;99.90;;;;;;5092359;28;20044;-71
2023/12/15 00:10:17;;;;;;;26.90;14.63;;;6.90;99.90;;;;;;5092651;28;20039;-71
2023/12/15 00:12:43;;;;;;;26.52;14.15;;;7.00;99.90;;;;;;5092394;28;20123;-71
2023/12/15 00:15:09;;;;;;;25.45;14.43;;;7.00;99.90;;;;;;5092749;28;20411;-71
2023/12/15 00:17:35;;;;;;;25.85;15.00;;;6.90;99.90;;;;;;5092387;28;20036;-71
2023/12/15 00:20:00;;;;;;;25.83;13.38;;;6.90;99.90;;;;;;5091649;28;20093;-71
2023/12/15 00:22:26;;;;;;;27.65;15.32;;;6.80;99.90;;;;;;5091172;28;20410;-71
2023/12/15 00:24:52;;;;;;;32.05;16.40;;;6.90;99.90;;;;;;5092241;28;20071;-71
2023/12/15 00:27:17;;;;;;;30.30;15.70;;;6.90;99.90;;;;;;5091961;28;20036;-71
2023/12/15 00:29:43;;;;;;;26.60;15.15;;;6.80;99.90;;;;;;5092295;28;20040;-71
2023/12/15 00:32:09;;;;;;;29.15;16.42;;;6.80;99.90;;;;;;5092185;28;20403;-71
2023/12/15 00:34:34;;;;;;;32.17;16.83;;;7.00;99.90;;;;;;5092296;28;20420;-71
2023/12/15 00:37:00;;;;;;;36.47;17.02;;;6.80;99.90;;;;;;5091943;28;20036;-71
2023/12/15 00:39:26;;;;;;;35.60;17.15;;;6.90;99.90;;;;;;5092133;28;20047;-71
2023/12/15 00:41:51;;;;;;;28.20;17.40;;;7.00;99.90;;;;;;5091904;28;20040;-71
2023/12/15 00:44:17;;;;;;;35.78;18.95;;;7.00;99.90;;;;;;5091944;28;20121;-71
2023/12/15 00:46:42;;;;;;;33.90;18.40;;;6.90;99.90;;;;;;5091883;28;20087;-71
2023/12/15 00:49:08;;;;;;;32.80;17.70;;;7.00;99.90;;;;;;5092019;28;20115;-71
2023/12/15 00:51:34;;;;;;;31.38;18.40;;;7.00;99.90;;;;;;5092100;28;20036;-71
2023/12/15 00:54:00;;;;;;;35.17;18.00;;;6.80;99.90;;;;;;5091954;28;20105;-71
2023/12/15 00:56:25;;;;;;;36.70;18.00;;;6.90;99.90;;;;;;5091518;28;20442;-71
2023/12/15 00:58:51;;;;;;;36.60;17.35;;;6.80;99.90;;;;;;5091826;28;20045;-71
2023/12/15 01:01:16;;;;;;;31.83;17.95;;;7.00;99.90;;;;;;5091991;28;20070;-71
2023/12/15 01:03:42;;;;;;;36.05;19.13;;;7.10;99.90;;;;;;5091789;28;20071;-71
2023/12/15 01:06:08;;;;;;;36.85;18.30;;;6.80;99.90;;;;;;5091771;28;20085;-71
2023/12/15 01:08:33;;;;;;;33.22;18.23;;;6.90;99.90;;;;;;5091536;28;20492;-71
2023/12/15 01:10:59;;;;;;;32.92;17.73;;;7.00;99.90;;;;;;5091518;28;20032;-71
2023/12/15 01:13:24;;;;;;;35.60;18.73;;;7.00;99.90;;;;;;5091821;28;20141;-71
2023/12/15 01:15:51;;;;;;;32.22;19.60;;;7.00;99.90;;;;;;5091614;28;20040;-71
2023/12/15 01:18:17;;;;;;;37.67;19.55;;;7.00;99.90;;;;;;5091633;28;20040;-71
2023/12/15 01:20:42;;;;;;;34.33;19.02;;;6.90;99.90;;;;;;5073855;28;20046;-71
2023/12/15 01:23:08;;;;;;;37.55;19.02;;;7.00;99.90;;;;;;5091545;28;20044;-71
2023/12/15 01:25:33;;;;;;;41.45;20.67;;;7.10;99.90;;;;;;5091386;28;20044;-71
2023/12/15 01:27:59;;;;;;;44.45;22.02;;;7.00;99.90;;;;;;5091582;28;20049;-71
2023/12/15 01:30:25;;;;;;;36.58;20.42;;;7.20;99.90;;;;;;5091398;28;20032;-71
2023/12/15 01:32:50;;;;;;;37.20;21.10;;;7.20;99.90;;;;;;5094695;28;20046;-71
2023/12/15 01:35:16;;;;;;;43.85;21.42;;;7.00;99.90;;;;;;5095617;28;20043;-69
2023/12/15 01:37:41;;;;;;;42.45;20.80;;;7.20;99.90;;;;;;5095236;28;20085;-70
2023/12/15 01:40:08;;;;;;;44.03;21.92;;;7.10;99.90;;;;;;5095421;28;20139;-70
2023/12/15 01:42:34;;;;;;;42.08;21.55;;;7.20;99.90;;;;;;5095613;28;20051;-69
2023/12/15 01:44:59;;;;;;;44.15;23.88;;;7.00;99.90;;;;;;5095373;28;20032;-70
2023/12/15 01:47:25;;;;;;;45.28;23.30;;;7.20;99.90;;;;;;5095217;28;20036;-69
2023/12/15 01:49:52;;;;;;;44.53;19.77;;;7.10;99.90;;;;;;5095416;28;20047;-71
2023/12/15 01:52:17;;;;;;;43.60;22.40;;;7.10;99.90;;;;;;5095298;28;20054;-69
2023/12/15 01:54:43;;;;;;;45.63;22.70;;;7.30;99.90;;;;;;5095305;28;20032;-69
2023/12/15 01:57:09;;;;;;;49.75;23.50;;;7.30;99.90;;;;;;5095142;28;20122;-69
2023/12/15 01:59:45;;;;;;;50.28;25.02;;;7.10;99.90;;;;;;5095325;28;20042;-70
2023/12/15 02:02:11;;;;;;;48.25;23.60;;;7.10;99.90;;;;;;5095011;28;20040;-70
2023/12/15 02:04:38;;;;;;;49.17;23.50;;;7.30;99.90;;;;;;5094983;28;20048;-69
2023/12/15 02:07:04;;;;;;;51.80;22.95;;;7.40;99.90;;;;;;5094746;28;20466;-69
2023/12/15 02:09:29;;;;;;;54.83;24.67;;;7.30;99.90;;;;;;5094896;28;20036;-69
2023/12/15 02:11:55;;;;;;;52.92;24.20;;;7.20;99.90;;;;;;5095009;28;20067;-69
2023/12/15 02:14:21;;;;;;;56.33;23.58;;;7.30;99.90;;;;;;5094952;28;20031;-69
2023/12/15 02:16:46;;;;;;;49.63;25.45;;;7.40;99.90;;;;;;5094579;28;20040;-69
2023/12/15 02:19:12;;;;;;;51.90;24.60;;;7.40;99.90;;;;;;5094809;28;20036;-69
2023/12/15 02:21:37;;;;;;;55.60;25.73;;;7.50;99.90;;;;;;5094674;28;20036;-69
2023/12/15 02:24:03;;;;;;;52.97;25.08;;;7.50;99.90;;;;;;5094523;28;20488;-69
2023/12/15 02:26:29;;;;;;;55.78;25.13;;;7.40;99.90;;;;;;5093354;28;20043;-69
2023/12/15 02:28:54;;;;;;;60.63;26.17;;;7.40;99.90;;;;;;5094659;28;20032;-70
2023/12/15 02:31:23;;;;;;;58.70;26.13;;;7.30;99.90;;;;;;5094580;28;20529;-69
2023/12/15 02:33:48;;;;;;;58.28;25.80;;;7.30;99.90;;;;;;5088658;22;20055;-74
2023/12/15 02:36:22;;;;;;;55.80;27.17;;;7.60;99.90;;;;;;5040029;28;20037;-74
2023/12/15 02:38:47;;;;;;;53.38;25.40;;;7.30;99.90;;;;;;5058154;28;20037;-74
2023/12/15 02:41:13;;;;;;;73.20;27.05;;;7.50;99.90;;;;;;5040262;28;20037;-74
2023/12/15 02:43:40;;;;;;;61.40;26.95;;;7.40;99.90;;;;;;5039359;28;20420;-74
2023/12/15 02:46:06;;;;;;;61.72;26.40;;;7.50;99.90;;;;;;5058014;28;20040;-74
2023/12/15 02:48:32;;;;;;;66.43;27.63;;;7.60;99.90;;;;;;5039181;28;20076;-74
2023/12/15 02:50:58;;;;;;;64.72;28.70;;;7.70;99.90;;;;;;5038717;28;20041;-74
2023/12/15 02:53:24;;;;;;;57.35;25.42;;;7.60;99.90;;;;;;5039495;28;20412;-74
2023/12/15 02:55:50;;;;;;;53.75;23.73;;;7.70;99.90;;;;;;5038757;28;20047;-75
2023/12/15 02:58:19;;;;;;;62.30;27.30;;;7.60;99.90;;;;;;5038960;28;20052;-74
2023/12/15 03:00:46;;;;;;;53.65;24.30;;;7.50;99.90;;;;;;5038890;28;20539;-74
2023/12/15 03:03:12;;;;;;;61.25;25.42;;;7.60;99.90;;;;;;5023235;28;20120;-74
2023/12/15 03:05:38;;;;;;;55.78;25.20;;;7.60;99.90;;;;;;5023114;28;20403;-74
2023/12/15 03:08:03;;;;;;;55.78;26.45;;;7.50;99.90;;;;;;5039590;28;20029;-74
2023/12/15 03:10:29;;;;;;;65.45;26.88;;;7.60;99.90;;;;;;5057151;28;20116;-74
2023/12/15 03:12:54;;;;;;;56.47;26.65;;;7.50;99.90;;;;;;5038993;28;20094;-74
2023/12/15 03:15:20;;;;;;;52.17;24.23;;;7.50;99.90;;;;;;5039991;28;20045;-74
2023/12/15 03:17:46;;;;;;;62.83;26.42;;;7.50;99.90;;;;;;5039547;28;20056;-74
2023/12/15 03:20:11;;;;;;;63.75;26.20;;;7.60;99.90;;;;;;5039186;28;20473;-74
2023/12/15 03:22:37;;;;;;;51.75;24.02;;;7.50;99.90;;;;;;5057199;28;20041;-74
2023/12/15 03:25:06;;;;;;;48.30;24.08;;;7.70;99.90;;;;;;5039940;28;20141;-74
2023/12/15 03:27:32;;;;;;;57.17;26.02;;;7.60;99.90;;;;;;5057372;28;20041;-74
2023/12/15 03:29:58;;;;;;;49.90;23.85;;;7.40;99.90;;;;;;5039968;28;20539;-74
2023/12/15 03:32:24;;;;;;;53.58;24.88;;;7.40;99.90;;;;;;5057633;28;20043;-74
2023/12/15 03:34:50;;;;;;;47.85;24.15;;;7.40;99.90;;;;;;5039903;28;20040;-74
2023/12/15 03:37:16;;;;;;;49.95;24.25;;;7.50;99.90;;;;;;5039181;28;20048;-75
2023/12/15 03:39:42;;;;;;;50.42;24.90;;;7.30;99.90;;;;;;5023754;28;20045;-74
2023/12/15 03:42:08;;;;;;;50.15;24.42;;;7.30;99.90;;;;;;5055906;28;20039;-74
2023/12/15 03:44:36;;;;;;;60.83;24.75;;;7.30;99.90;;;;;;5055592;28;20044;-74
2023/12/15 03:47:02;;;;;;;52.50;25.65;;;7.20;99.90;;;;;;5022419;28;20039;-74
2023/12/15 03:49:28;;;;;;;45.75;23.95;;;7.30;99.90;;;;;;5057284;28;20048;-74
2023/12/15 03:51:53;;;;;;;47.42;21.58;;;7.20;99.90;;;;;;5056218;28;20082;-74
2023/12/15 03:54:19;;;;;;;51.85;25.38;;;7.30;99.90;;;;;;5057212;28;20377;-74
2023/12/15 03:56:45;;;;;;;43.35;23.50;;;7.30;99.90;;;;;;5038899;28;20056;-74
2023/12/15 03:59:10;;;;;;;43.63;22.05;;;7.10;99.90;;;;;;5056433;28;20045;-74
2023/12/15 04:01:36;;;;;;;49.05;23.23;;;7.20;99.90;;;;;;5039147;28;20075;-74
2023/12/15 04:04:02;;;;;;;58.20;24.55;;;7.10;99.90;;;;;;5038483;28;20504;-74
2023/12/15 04:06:27;;;;;;;39.03;21.75;;;7.20;99.90;;;;;;5039032;28;20091;-74
2023/12/15 04:08:53;;;;;;;49.60;23.50;;;7.00;99.90;;;;;;5056712;28;20563;-74
2023/12/15 04:11:19;;;;;;;46.80;23.42;;;7.10;99.90;;;;;;5037979;28;20103;-74
2023/12/15 04:13:45;;;;;;;46.55;23.38;;;7.10;99.90;;;;;;5056944;28;20036;-74
2023/12/15 04:16:11;;;;;;;48.38;23.60;;;7.20;99.90;;;;;;5056814;28;20041;-74
2023/12/15 04:18:37;;;;;;;45.78;22.40;;;7.00;99.90;;;;;;5056686;28;20068;-74
2023/12/15 04:21:03;;;;;;;47.10;21.55;;;7.20;99.90;;;;;;5038829;28;20049;-74
2023/12/15 04:23:30;;;;;;;51.20;23.35;;;7.10;99.90;;;;;;5039192;28;20119;-74
2023/12/15 04:25:58;;;;;;;49.00;21.63;;;7.10;99.90;;;;;;5038234;28;20033;-74
2023/12/15 04:28:25;;;;;;;52.83;22.05;;;7.00;99.90;;;;;;5038896;28;20037;-74
2023/12/15 04:31:14;;;;;;;48.03;22.48;;;7.30;99.90;;;;;;5022328;28;20077;-75
2023/12/15 04:33:40;;;;;;;43.90;21.15;;;7.10;99.90;;;;;;5039147;28;20519;-75
2023/12/15 04:36:07;;;;;;;46.72;22.00;;;7.00;99.90;;;;;;5039000;28;20095;-75
2023/12/15 04:38:33;;;;;;;50.92;22.40;;;7.10;99.90;;;;;;5021823;28;20045;-74
2023/12/15 04:40:59;;;;;;;44.17;21.05;;;7.10;99.90;;;;;;5039102;28;20124;-74
2023/12/15 04:43:24;;;;;;;46.00;20.88;;;6.90;99.90;;;;;;5038974;28;20049;-74
2023/12/15 04:45:50;;;;;;;41.10;21.30;;;7.00;99.90;;;;;;5038788;28;20459;-74
2023/12/15 04:48:16;;;;;;;45.15;21.40;;;7.00;99.90;;;;;;5056201;28;20037;-74
2023/12/15 04:50:41;;;;;;;48.00;20.67;;;6.80;99.90;;;;;;5056636;28;20033;-74
2023/12/15 04:53:07;;;;;;;41.88;19.88;;;7.00;99.90;;;;;;5036836;28;20118;-74
2023/12/15 04:55:33;;;;;;;41.13;20.25;;;6.80;99.90;;;;;;5055796;28;20508;-74
2023/12/15 04:57:58;;;;;;;46.33;23.25;;;6.90;99.90;;;;;;5038735;28;20041;-74
2023/12/15 05:00:24;;;;;;;51.63;20.83;;;7.00;99.90;;;;;;5038112;28;20051;-74
2023/12/15 05:02:50;;;;;;;48.63;22.08;;;7.10;99.90;;;;;;5037674;28;20041;-74
2023/12/15 05:05:15;;;;;;;48.70;23.60;;;7.10;99.90;;;;;;5038472;28;20033;-74
2023/12/15 05:07:41;;;;;;;51.03;22.20;;;7.10;99.90;;;;;;5037142;28;20037;-74
2023/12/15 05:10:07;;;;;;;51.17;22.65;;;7.10;99.90;;;;;;5055498;28;20052;-74
2023/12/15 05:12:34;;;;;;;44.58;20.15;;;7.20;99.90;;;;;;5038348;28;20115;-74
2023/12/15 05:15:01;;;;;;;41.67;21.55;;;7.20;99.90;;;;;;5037367;28;20120;-74
2023/12/15 05:17:26;;;;;;;47.00;22.25;;;6.90;99.90;;;;;;5036465;28;20037;-75
2023/12/15 05:19:52;;;;;;;38.08;19.75;;;6.90;99.90;;;;;;5037003;28;20036;-74
2023/12/15 05:22:17;;;;;;;42.30;18.73;;;6.90;99.90;;;;;;5038413;28;20033;-74
2023/12/15 05:24:43;;;;;;;44.97;19.75;;;7.10;99.90;;;;;;5056570;28;20056;-74
2023/12/15 05:27:09;;;;;;;45.72;19.10;;;6.90;99.90;;;;;;5038554;28;20036;-75
2023/12/15 05:29:36;;;;;;;43.38;18.52;;;6.90;99.90;;;;;;5038060;28;20059;-74
2023/12/15 05:32:02;;;;;;;48.22;20.05;;;6.90;99.90;;;;;;5036580;28;20047;-74
2023/12/15 05:34:28;;;;;;;38.70;18.45;;;7.10;99.90;;;;;;5056459;28;20490;-74
2023/12/15 05:36:53;;;;;;;50.17;19.70;;;7.00;99.90;;;;;;5038373;28;20040;-74
2023/12/15 05:39:19;;;;;;;40.95;18.25;;;7.10;99.90;;;;;;5038255;28;20412;-75
2023/12/15 05:41:44;;;;;;;47.20;17.75;;;7.00;99.90;;;;;;5037713;28;20080;-74
2023/12/15 05:44:10;;;;;;;39.55;17.20;;;7.00;99.90;;;;;;5037704;28;20115;-74
2023/12/15 05:46:41;;;;;;;40.67;19.88;;;6.90;99.90;;;;;;5037617;28;20059;-74
2023/12/15 05:49:06;;;;;;;31.88;17.50;;;6.80;99.90;;;;;;5021938;28;20036;-74
2023/12/15 05:51:32;;;;;;;40.40;19.73;;;6.80;99.90;;;;;;5037447;28;20122;-74
2023/12/15 05:53:57;;;;;;;41.22;18.58;;;6.90;99.90;;;;;;5037355;28;20045;-74
2023/12/15 05:56:23;;;;;;;35.97;18.40;;;7.00;99.90;;;;;;5054769;28;20037;-74
2023/12/15 05:58:49;;;;;;;40.10;17.52;;;6.70;99.90;;;;;;5055287;28;20076;-74
2023/12/15 06:01:14;;;;;;;34.70;17.63;;;6.70;99.90;;;;;;5037759;28;20055;-74
2023/12/15 06:03:40;;;;;;;32.92;16.95;;;6.70;99.90;;;;;;5037307;28;20087;-74
2023/12/15 06:06:06;;;;;;;47.83;18.70;;;6.80;99.90;;;;;;5055643;28;20048;-74
2023/12/15 06:08:32;;;;;;;41.03;16.33;;;6.70;99.90;;;;;;5054120;28;20040;-74
2023/12/15 06:10:57;;;;;;;35.05;15.85;;;6.60;99.90;;;;;;5037183;28;20044;-74
2023/12/15 06:13:23;;;;;;;35.83;16.80;;;6.70;99.90;;;;;;5054461;28;20073;-74
2023/12/15 06:15:49;;;;;;;44.17;18.73;;;6.60;99.90;;;;;;5037690;28;20041;-74
2023/12/15 06:18:14;;;;;;;37.13;17.70;;;6.60;99.90;;;;;;5036537;28;20067;-75
2023/12/15 06:20:40;;;;;;;44.72;17.52;;;6.80;99.90;;;;;;5057231;28;20120;-74
2023/12/15 06:23:05;;;;;;;44.00;17.58;;;6.60;99.90;;;;;;5039672;28;20044;-74
2023/12/15 06:25:31;;;;;;;30.73;16.23;;;6.80;99.90;;;;;;5059048;28;20113;-75
2023/12/15 06:27:56;;;;;;;37.00;16.08;;;6.70;99.90;;;;;;5041561;28;20059;-74
2023/12/15 06:30:22;;;;;;;38.83;17.05;;;6.80;99.90;;;;;;5040009;28;20147;-75
2023/12/15 06:32:47;;;;;;;38.20;17.33;;;6.90;99.90;;;;;;5058220;28;20037;-74
2023/12/15 06:35:14;;;;;;;42.13;18.02;;;6.90;99.90;;;;;;5040453;28;20066;-74
2023/12/15 06:37:40;;;;;;;41.65;16.45;;;6.90;99.90;;;;;;5039075;28;20531;-74
2023/12/15 06:40:06;;;;;;;45.08;18.02;;;6.80;99.90;;;;;;5040741;28;20041;-74
2023/12/15 06:42:32;;;;;;;38.65;17.30;;;6.70;99.90;;;;;;5057358;28;20048;-74
2023/12/15 06:45:04;;;;;;;41.85;16.63;;;7.00;99.90;;;;;;5040518;28;20037;-75
2023/12/15 06:47:29;;;;;;;33.92;16.15;;;6.90;99.90;;;;;;5022422;28;20405;-75
2023/12/15 06:49:55;;;;;;;41.35;15.75;;;6.90;99.90;;;;;;5057321;28;20108;-74
2023/12/15 06:52:21;;;;;;;35.13;15.80;;;6.90;99.90;;;;;;5023460;28;20458;-75
2023/12/15 06:54:46;;;;;;;34.33;16.17;;;6.70;99.90;;;;;;5057912;28;20077;-74
2023/12/15 06:57:12;;;;;;;43.72;15.75;;;6.90;99.90;;;;;;5059107;28;20044;-72
2023/12/15 06:59:37;;;;;;;33.10;15.10;;;7.00;99.90;;;;;;5041453;28;20040;-73
2023/12/15 07:02:03;;;;;;;32.08;14.40;;;6.70;99.90;;;;;;5041529;28;20040;-73
2023/12/15 07:04:28;;;;;;;36.92;15.63;;;6.90;99.90;;;;;;5040734;28;20041;-73
2023/12/15 07:06:54;;;;;;;36.65;15.32;;;6.70;99.90;;;;;;5039345;28;20179;-73
2023/12/15 07:09:20;;;;;;;34.50;14.35;;;6.70;99.90;;;;;;5039190;28;20037;-73
2023/12/15 07:11:46;;;;;;;33.80;15.30;;;6.60;99.90;;;;;;5022766;28;20044;-73
2023/12/15 07:14:12;;;;;;;34.25;14.40;;;6.80;99.90;;;;;;5038665;28;20067;-73
2023/12/15 07:16:37;;;;;;;35.70;14.25;;;6.60;99.90;;;;;;5056885;28;20037;-73
2023/12/15 07:19:03;;;;;;;38.85;14.73;;;6.70;99.90;;;;;;5039268;28;20041;-72
2023/12/15 07:21:28;;;;;;;35.28;14.30;;;6.80;99.90;;;;;;5039202;28;20114;-73
2023/12/15 07:23:55;;;;;;;35.65;14.75;;;6.90;99.90;;;;;;5056798;28;20694;-74
2023/12/15 07:26:20;;;;;;;34.70;15.15;;;6.70;99.90;;;;;;5038019;28;20460;-73
2023/12/15 07:28:46;;;;;;;36.85;17.52;;;7.00;99.90;;;;;;5039280;28;20119;-73
2023/12/15 07:31:12;;;;;;;40.30;17.15;;;6.80;99.90;;;;;;5056790;28;20036;-73
2023/12/15 07:33:37;;;;;;;43.70;16.20;;;7.00;99.90;;;;;;5056083;28;20037;-73
2023/12/15 07:36:03;;;;;;;28.40;13.93;;;7.00;99.90;;;;;;5056625;28;20037;-73
2023/12/15 07:38:29;;;;;;;35.72;15.85;;;6.90;99.90;;;;;;5038806;28;20048;-73
2023/12/15 07:40:54;;;;;;;36.17;15.07;;;6.80;99.90;;;;;;5039261;28;20444;-73
2023/12/15 07:43:21;;;;;;;34.33;15.57;;;6.90;99.90;;;;;;5056641;28;20041;-73
2023/12/15 07:45:46;;;;;;;25.77;13.65;;;6.70;99.90;;;;;;5038716;28;20052;-73
2023/12/15 07:48:13;;;;;;;34.10;16.00;;;6.70;99.90;;;;;;5056381;28;20488;-73
2023/12/15 07:50:39;;;;;;;26.77;12.70;;;6.80;99.90;;;;;;5056939;28;20037;-73
2023/12/15 07:53:05;;;;;;;37.92;14.95;;;6.70;99.90;;;;;;5038139;28;20052;-73
2023/12/15 07:55:30;;;;;;;31.42;13.05;;;6.50;99.90;;;;;;5038554;28;20512;-73
2023/12/15 07:57:56;;;;;;;29.50;14.35;;;6.60;99.90;;;;;;5056223;28;20120;-73
2023/12/15 08:00:22;;;;;;;22.73;12.95;;;6.50;99.90;;;;;;5038904;28;20037;-73
2023/12/15 08:02:48;;;;;;;30.92;14.05;;;6.50;99.90;;;;;;5055886;28;20037;-73
2023/12/15 08:05:14;;;;;;;30.38;13.32;;;6.70;99.90;;;;;;5055709;28;20515;-73
2023/12/15 08:07:42;;;;;;;24.48;12.27;;;6.50;99.90;;;;;;5056078;28;20041;-73
2023/12/15 08:10:08;;;;;;;31.83;13.07;;;6.70;99.90;;;;;;5056474;28;20041;-73
2023/12/15 08:12:34;;;;;;;32.70;12.57;;;6.60;99.90;;;;;;5055747;28;20092;-73
2023/12/15 08:14:59;;;;;;;29.50;12.75;;;6.60;99.90;;;;;;5056230;28;20033;-73
2023/12/15 08:17:25;;;;;;;34.33;12.80;;;6.80;99.90;;;;;;5055289;28;20530;-73
2023/12/15 08:19:51;;;;;;;25.58;11.98;;;6.60;99.90;;;;;;5055337;28;20041;-72
2023/12/15 08:22:17;;;;;;;30.70;13.38;;;6.70;99.90;;;;;;5038810;28;20037;-73
2023/12/15 08:24:43;;;;;;;25.33;11.75;;;6.90;99.90;;;;;;5055087;28;20037;-72
2023/12/15 08:27:08;;;;;;;31.67;11.73;;;6.90;99.90;;;;;;5037570;28;20033;-73
2023/12/15 08:29:34;;;;;;;28.73;11.23;;;6.90;99.90;;;;;;5038245;28;20037;-73
2023/12/15 08:32:00;;;;;;;31.33;12.15;;;6.80;99.90;;;;;;5039313;28;20459;-73
2023/12/15 08:34:26;;;;;;;35.00;12.27;;;7.00;99.90;;;;;;5088969;22;20052;-70
2023/12/15 08:36:52;;;;;;;30.75;11.27;;;7.10;99.90;;;;;;5069811;28;20041;-70
2023/12/15 08:39:18;;;;;;;27.73;10.95;;;7.10;99.90;;;;;;5072198;28;20372;-70
2023/12/15 08:41:43;;;;;;;29.90;12.77;;;7.20;99.90;;;;;;5069763;28;20037;-70
2023/12/15 08:44:09;;;;;;;37.30;11.38;;;7.10;99.90;;;;;;5071900;28;20036;-70
2023/12/15 08:46:35;;;;;;;30.00;12.50;;;7.20;99.90;;;;;;5071787;28;20064;-70
2023/12/15 08:49:01;;;;;;;38.88;13.13;;;7.10;99.90;;;;;;5071706;28;20041;-70
2023/12/15 08:51:27;;;;;;;33.10;11.52;;;7.20;99.90;;;;;;5071904;28;20082;-70
2023/12/15 08:53:53;;;;;;;35.85;13.25;;;7.30;99.90;;;;;;5071864;28;20048;-70
2023/12/15 08:56:18;;;;;;;31.85;11.60;;;7.30;99.90;;;;;;5071194;28;20047;-70
2023/12/15 08:58:44;;;;;;;27.45;11.77;;;7.40;99.90;;;;;;5070481;28;20044;-70
2023/12/15 09:01:11;;;;;;;37.17;11.93;;;7.50;99.90;;;;;;5071708;28;20123;-70
2023/12/15 09:03:36;;;;;;;28.95;12.35;;;7.40;99.90;;;;;;5071526;28;20124;-70
2023/12/15 09:06:02;;;;;;;33.22;11.60;;;7.50;99.90;;;;;;5071681;28;20060;-70
2023/12/15 09:08:28;;;;;;;41.88;11.35;;;7.30;99.90;;;;;;5071552;28;20048;-70
2023/12/15 09:10:53;;;;;;;35.65;11.45;;;7.60;99.90;;;;;;5071764;28;20029;-70
2023/12/15 09:13:20;;;;;;;28.65;10.75;;;7.60;99.90;;;;;;5071549;28;20454;-70
2023/12/15 09:15:46;;;;;;;36.45;12.23;;;7.30;99.90;;;;;;5070276;28;20051;-71
2023/12/15 09:18:12;;;;;;;37.38;11.20;;;7.50;99.90;;;;;;5071263;28;20036;-70
2023/12/15 09:20:38;;;;;;;33.58;11.73;;;7.60;99.90;;;;;;5071690;28;20040;-70
2023/12/15 09:23:09;;;;;;;25.40;10.02;;;7.60;99.90;;;;;;5071495;28;20419;-71
2023/12/15 09:25:34;;;;;;;30.48;10.40;;;7.60;99.90;;;;;;5070096;28;20068;-70
2023/12/15 09:28:03;;;;;;;35.50;11.50;;;7.50;99.90;;;;;;5071447;28;20407;-70
2023/12/15 09:30:29;;;;;;;36.22;11.88;;;7.60;99.90;;;;;;5071418;28;20040;-70
2023/12/15 09:32:55;;;;;;;29.45;10.60;;;7.60;99.90;;;;;;5071077;28;20085;-70
2023/12/15 09:35:20;;;;;;;22.73;9.98;;;7.70;99.90;;;;;;5071635;28;20628;-70
2023/12/15 09:37:46;;;;;;;26.73;11.02;;;7.50;99.90;;;;;;5071182;28;20523;-70
2023/12/15 09:40:13;;;;;;;31.40;12.50;;;7.60;99.90;;;;;;5071393;28;20041;-70
2023/12/15 09:42:39;;;;;;;28.50;9.70;;;7.60;99.90;;;;;;5069906;28;20037;-71
2023/12/15 09:45:05;;;;;;;38.47;11.30;;;7.70;99.90;;;;;;5070803;28;20029;-71
2023/12/15 09:47:33;;;;;;;30.45;13.27;;;7.80;99.90;;;;;;5069429;28;20036;-71
2023/12/15 09:50:03;;;;;;;33.85;10.65;;;7.70;99.90;;;;;;5070853;28;20039;-71
2023/12/15 09:52:32;;;;;;;30.88;11.50;;;7.70;99.90;;;;;;5071819;28;20450;-71
2023/12/15 09:54:59;;;;;;;29.98;11.15;;;7.90;99.90;;;;;;5075002;28;20048;-71
2023/12/15 09:57:25;;;;;;;29.88;10.55;;;7.70;99.90;;;;;;5074716;28;20411;-71
2023/12/15 09:59:51;;;;;;;24.55;10.48;;;7.90;99.90;;;;;;5073792;28;20048;-70
2023/12/15 10:02:17;;;;;;;28.95;10.30;;;7.90;99.90;;;;;;5074712;28;20507;-71
2023/12/15 10:04:42;;;;;;;35.65;9.73;;;8.00;99.90;;;;;;5074275;28;20041;-70
2023/12/15 10:07:09;;;;;;;29.67;10.60;;;8.00;99.90;;;;;;5074280;28;20496;-71
2023/12/15 10:09:38;;;;;;;30.10;11.15;;;7.90;99.90;;;;;;5074683;28;20400;-70
2023/12/15 10:12:08;;;;;;;26.10;9.48;;;8.00;99.90;;;;;;5074633;28;20076;-70
2023/12/15 10:14:38;;;;;;;27.98;9.38;;;8.00;99.90;;;;;;5073379;28;20115;-71
2023/12/15 10:17:09;;;;;;;36.45;10.13;;;8.10;99.90;;;;;;5073012;28;20040;-71
2023/12/15 10:19:35;;;;;;;31.40;10.40;;;8.10;99.90;;;;;;5074506;28;20488;-72
2023/12/15 10:22:02;;;;;;;27.60;10.48;;;8.00;99.90;;;;;;5073069;28;20051;-71
2023/12/15 10:24:28;;;;;;;26.88;9.02;;;8.10;99.90;;;;;;5074182;28;20098;-71
2023/12/15 10:26:53;;;;;;;36.65;10.13;;;8.30;99.90;;;;;;5074139;28;20723;-72
2023/12/15 10:29:20;;;;;;;26.90;9.23;;;8.30;99.90;;;;;;5074489;28;20510;-71
2023/12/15 10:31:49;;;;;;;36.13;10.43;;;8.30;99.90;;;;;;5074266;28;20048;-71
2023/12/15 10:34:15;;;;;;;40.67;11.85;;;8.30;99.90;;;;;;5072889;28;20499;-71
2023/12/15 10:36:44;;;;;;;37.53;11.52;;;8.20;99.90;;;;;;5073410;28;20036;-71
2023/12/15 10:39:13;;;;;;;26.52;9.23;;;8.30;99.90;;;;;;5073013;28;20522;-70
2023/12/15 10:41:39;;;;;;;34.80;9.10;;;8.40;99.90;;;;;;5072653;28;20068;-70
2023/12/15 10:44:06;;;;;;;25.90;7.75;;;8.20;99.90;;;;;;5072252;28;20048;-71
2023/12/15 10:46:33;;;;;;;27.30;8.75;;;8.30;99.90;;;;;;5071537;28;20530;-71
2023/12/15 10:48:59;;;;;;;21.85;7.95;;;8.40;99.90;;;;;;5071232;28;20044;-71
2023/12/15 10:51:26;;;;;;;29.92;8.88;;;8.50;99.90;;;;;;5070850;28;20040;-71
2023/12/15 10:53:56;;;;;;;26.17;8.68;;;8.50;99.90;;;;;;5058284;28;20045;-71
2023/12/15 10:56:22;;;;;;;33.63;8.68;;;8.50;99.90;;;;;;5054311;28;20131;-72
2023/12/15 10:58:49;;;;;;;33.90;10.43;;;8.50;99.90;;;;;;5073856;28;20044;-71
2023/12/15 11:01:16;;;;;;;36.42;9.70;;;8.60;99.90;;;;;;5072479;28;20041;-73
2023/12/15 11:03:42;;;;;;;32.40;7.32;;;8.50;99.90;;;;;;5071729;28;20044;-73
2023/12/15 11:06:09;;;;;;;36.10;8.68;;;8.60;99.90;;;;;;5055260;28;20035;-72
2023/12/15 11:08:35;;;;;;;37.33;8.15;;;8.70;99.90;;;;;;5072347;28;20518;-72
2023/12/15 11:11:07;;;;;;;32.38;8.80;;;8.60;99.90;;;;;;5073460;28;20036;-71
2023/12/15 11:13:52;;;;;;;29.40;7.70;;;8.60;99.90;;;;;;5072254;28;20048;-72
2023/12/15 11:16:19;;;;;;;30.02;8.00;;;8.70;99.90;;;;;;5073300;28;20040;-73
2023/12/15 11:18:44;;;;;;;31.02;7.80;;;8.80;99.90;;;;;;5073464;28;20059;-72
2023/12/15 11:21:11;;;;;;;28.85;7.75;;;8.70;99.90;;;;;;5072515;28;20524;-71
2023/12/15 11:23:59;;;;;;;31.05;8.75;;;8.80;99.90;;;;;;5071859;28;20036;-71
2023/12/15 11:26:33;;;;;;;31.63;9.20;;;8.80;99.90;;;;;;5072540;28;20033;-71
2023/12/15 11:29:19;;;;;;;32.10;7.43;;;8.80;99.90;;;;;;5071754;28;20131;-72
2023/12/15 11:31:45;;;;;;;25.77;9.43;;;8.90;99.90;;;;;;5071883;28;20048;-72
2023/12/15 11:34:37;;;;;;;31.08;7.25;;;9.00;99.90;;;;;;5072950;28;20044;-72
2023/12/15 11:37:03;;;;;;;32.97;7.38;;;9.00;99.90;;;;;;5071585;28;20040;-72
2023/12/15 11:39:30;;;;;;;32.60;7.38;;;9.00;99.90;;;;;;5071889;28;20040;-72
2023/12/15 11:41:56;;;;;;;36.03;8.63;;;9.00;99.90;;;;;;5072902;28;20036;-72
2023/12/15 11:44:27;;;;;;;35.65;7.32;;;8.90;99.90;;;;;;5071462;28;20044;-72
2023/12/15 11:46:53;;;;;;;30.05;8.68;;;9.10;99.90;;;;;;5072480;28;20181;-72
2023/12/15 11:49:23;;;;;;;29.65;7.65;;;9.00;99.90;;;;;;5072006;28;20673;-72
2023/12/15 11:51:50;;;;;;;34.95;9.02;;;9.10;99.90;;;;;;5071518;28;20079;-71
2023/12/15 11:54:15;;;;;;;31.20;10.43;;;9.20;99.90;;;;;;5071555;28;20044;-71
2023/12/15 11:56:41;;;;;;;36.85;7.97;;;9.00;99.90;;;;;;5071015;28;20496;-71
2023/12/15 11:59:07;;;;;;;41.80;7.60;;;9.10;99.90;;;;;;5072536;28;20423;-70
2023/12/15 12:01:36;;;;;;;34.30;7.15;;;9.10;99.90;;;;;;5072179;28;20115;-71
2023/12/15 12:04:02;;;;;;;30.83;7.50;;;9.10;99.90;;;;;;5072207;28;20037;-72
2023/12/15 12:06:29;;;;;;;32.83;7.65;;;9.20;99.90;;;;;;5072231;28;20039;-72
2023/12/15 12:08:55;;;;;;;39.40;8.07;;;9.30;99.90;;;;;;5072397;28;20103;-72
2023/12/15 12:11:21;;;;;;;31.30;7.97;;;9.20;99.90;;;;;;5072331;28;20079;-72
2023/12/15 12:13:48;;;;;;;34.63;7.85;;;9.30;99.90;;;;;;5072300;28;20044;-72
2023/12/15 12:16:17;;;;;;;28.58;7.13;;;9.40;99.90;;;;;;5070788;28;20110;-73
2023/12/15 12:18:45;;;;;;;30.90;9.40;;;9.30;99.90;;;;;;5069078;28;20047;-72
2023/12/15 12:21:11;;;;;;;31.85;6.45;;;9.50;99.90;;;;;;5071917;28;20042;-72
2023/12/15 12:23:38;;;;;;;34.20;6.50;;;9.40;99.90;;;;;;5053838;28;20059;-72
2023/12/15 12:26:06;;;;;;;23.70;6.78;;;9.50;99.90;;;;;;5070821;28;20083;-71
2023/12/15 12:28:40;;;;;;;27.83;7.75;;;9.60;99.90;;;;;;5069682;28;20040;-72
2023/12/15 12:31:06;;;;;;;22.60;6.65;;;9.60;99.90;;;;;;5071395;28;20041;-71
2023/12/15 12:33:32;;;;;;;28.55;7.38;;;9.60;99.90;;;;;;5071085;28;20415;-72